createdAt,value
2018-10-03T00:02:51.070Z,13.37
2018-10-03T00:07:54.229Z,13.30
2018-10-03T00:12:57.392Z,12.83
2018-10-03T00:18:00.530Z,12.50
2018-10-03T00:23:03.716Z,12.40
2018-10-03T00:28:06.883Z,12.18
2018-10-03T00:33:10.007Z,14.27
2018-10-03T00:38:13.176Z,15.60
2018-10-03T00:43:16.306Z,13.03
2018-10-03T00:48:19.509Z,15.87
2018-10-03T00:53:22.635Z,14.60
2018-10-03T00:58:25.775Z,13.50
2018-10-03T01:03:28.931Z,12.80
2018-10-03T01:08:32.088Z,12.93
2018-10-03T01:13:35.218Z,11.30
2018-10-03T01:18:38.397Z,14.43
2018-10-03T01:23:41.810Z,13.10
2018-10-03T01:28:44.951Z,13.00
2018-10-03T01:33:48.153Z,14.43
2018-10-03T01:38:51.310Z,12.93
2018-10-03T01:43:54.479Z,14.13
2018-10-03T01:48:57.675Z,12.33
2018-10-03T01:54:00.799Z,12.03
2018-10-03T01:59:04.022Z,12.97
2018-10-03T02:04:07.169Z,14.03
2018-10-03T02:09:10.257Z,14.77
2018-10-03T02:14:13.421Z,15.90
2018-10-03T02:19:16.890Z,13.93
2018-10-03T02:24:20.470Z,15.80
2018-10-03T02:29:23.939Z,13.27
2018-10-03T02:34:27.079Z,14.53
2018-10-03T02:39:30.231Z,16.07
2018-10-03T02:44:33.415Z,15.87
2018-10-03T02:49:36.606Z,17.67
2018-10-03T02:54:39.769Z,14.27
2018-10-03T02:59:42.983Z,17.07
2018-10-03T03:04:46.127Z,18.17
2018-10-03T03:09:49.274Z,14.50
2018-10-03T03:14:52.406Z,16.63
2018-10-03T03:19:55.613Z,15.93
2018-10-03T03:24:58.821Z,15.03
2018-10-03T03:30:02.027Z,19.63
2018-10-03T03:35:05.175Z,18.93
2018-10-03T03:40:08.319Z,20.47
2018-10-03T03:45:11.565Z,18.17
2018-10-03T03:50:14.750Z,17.83
2018-10-03T03:55:17.967Z,15.80
2018-10-03T04:00:21.446Z,16.63
2018-10-03T04:05:24.567Z,19.32
2018-10-03T04:10:27.697Z,17.83
2018-10-03T04:15:30.853Z,20.80
2018-10-03T04:20:34.047Z,20.03
2018-10-03T04:25:37.192Z,18.07
2018-10-03T04:30:40.617Z,16.10
2018-10-03T04:35:43.916Z,15.23
2018-10-03T04:40:47.086Z,19.27
2018-10-03T04:45:50.355Z,14.43
2018-10-03T04:50:53.574Z,19.37
2018-10-03T04:55:56.768Z,19.57
2018-10-03T05:00:59.919Z,17.20
2018-10-03T05:06:03.115Z,18.30
2018-10-03T05:11:06.319Z,18.60
2018-10-03T05:16:09.476Z,17.90
2018-10-03T05:21:12.713Z,17.07
2018-10-03T05:26:15.871Z,18.50
2018-10-03T05:31:19.023Z,17.53
2018-10-03T05:36:22.221Z,16.70
2018-10-03T05:41:27.414Z,17.27
2018-10-03T05:46:30.618Z,14.87
2018-10-03T05:51:33.723Z,16.40
2018-10-03T05:56:36.920Z,18.00
2018-10-03T06:01:40.047Z,19.83
2018-10-03T06:06:43.162Z,16.60
2018-10-03T06:11:46.271Z,13.13
2018-10-03T06:16:49.419Z,16.80
2018-10-03T06:21:52.585Z,12.70
2018-10-03T06:26:56.239Z,13.47
2018-10-03T06:31:59.408Z,11.45
2018-10-03T06:37:02.562Z,11.08
2018-10-03T06:42:05.688Z,7.57
2018-10-03T06:47:08.919Z,11.43
2018-10-03T06:52:12.095Z,12.77
2018-10-03T06:57:15.253Z,12.27
2018-10-03T07:02:18.806Z,6.73
2018-10-03T07:07:22.009Z,7.23
2018-10-03T07:12:25.208Z,6.57
2018-10-03T07:17:28.344Z,7.13
2018-10-03T07:22:31.492Z,8.48
2018-10-03T07:27:34.694Z,8.07
2018-10-03T07:32:37.925Z,6.57
2018-10-03T07:37:41.072Z,6.97
2018-10-03T07:42:44.169Z,7.43
2018-10-03T07:47:47.368Z,11.13
2018-10-03T07:52:50.512Z,14.70
2018-10-03T07:57:53.702Z,13.00
2018-10-03T08:02:57.287Z,15.70
2018-10-03T08:08:00.413Z,13.13
2018-10-03T08:13:04.041Z,18.75
2018-10-03T08:18:07.171Z,17.17
2018-10-03T08:23:10.349Z,21.03
2018-10-03T08:28:13.525Z,15.90
2018-10-03T08:33:16.805Z,12.23
2018-10-03T08:38:19.890Z,19.77
2018-10-03T08:43:23.081Z,19.00
2018-10-03T08:48:26.223Z,21.00
2018-10-03T08:53:29.322Z,18.20
2018-10-03T08:58:32.540Z,23.07
2018-10-03T09:03:35.691Z,19.43
2018-10-03T09:08:39.327Z,18.20
2018-10-03T09:13:42.439Z,22.10
2018-10-03T09:18:45.586Z,25.30
2018-10-03T09:23:48.754Z,21.73
2018-10-03T09:28:51.914Z,21.15
2018-10-03T09:33:55.122Z,17.80
2018-10-03T09:38:58.324Z,22.48
2018-10-03T09:44:01.453Z,21.82
2018-10-03T09:49:04.849Z,15.43
2018-10-03T09:54:08.019Z,21.97
2018-10-03T09:59:11.170Z,16.10
2018-10-03T10:04:14.323Z,19.07
2018-10-03T10:09:17.567Z,19.03
2018-10-03T10:14:20.692Z,22.43
2018-10-03T10:19:23.845Z,18.07
2018-10-03T10:24:26.973Z,18.47
2018-10-03T10:29:30.196Z,17.95
2018-10-03T10:34:33.390Z,18.67
2018-10-03T10:39:36.557Z,19.00
2018-10-03T10:44:39.697Z,18.12
2018-10-03T10:49:42.987Z,23.47
2018-10-03T10:54:46.182Z,21.07
2018-10-03T10:59:49.680Z,23.27
2018-10-03T11:04:52.767Z,17.57
2018-10-03T11:09:55.885Z,16.83
2018-10-03T11:14:59.016Z,15.33
2018-10-03T11:20:02.185Z,16.37
2018-10-03T11:25:05.339Z,16.07
2018-10-03T11:30:08.513Z,13.57
2018-10-03T11:35:11.629Z,16.90
2018-10-03T11:40:14.763Z,12.10
2018-10-03T11:45:17.899Z,14.30
2018-10-03T11:50:21.131Z,14.13
2018-10-03T11:55:24.328Z,15.97
2018-10-03T12:00:27.464Z,15.30
2018-10-03T12:05:30.617Z,17.43
2018-10-03T12:10:33.776Z,14.47
2018-10-03T12:15:36.952Z,18.37
2018-10-03T12:20:40.103Z,13.20
2018-10-03T12:25:43.286Z,19.98
2018-10-03T12:30:46.558Z,20.72
2018-10-03T12:35:49.671Z,17.07
2018-10-03T12:40:52.835Z,20.20
2018-10-03T12:45:55.946Z,17.30
2018-10-03T12:50:59.120Z,18.77
2018-10-03T12:56:02.442Z,17.23
2018-10-03T13:01:05.598Z,20.43
2018-10-03T13:06:08.726Z,19.03
2018-10-03T13:11:11.943Z,11.60
2018-10-03T13:16:15.117Z,16.33
2018-10-03T13:21:18.250Z,21.03
2018-10-03T13:26:21.413Z,14.80
2018-10-03T13:31:24.614Z,19.93
2018-10-03T13:36:27.758Z,17.52
2018-10-03T13:41:31.032Z,14.77
2018-10-03T13:46:34.562Z,24.70
2018-10-03T13:51:37.664Z,15.27
2018-10-03T13:56:40.844Z,18.40
2018-10-03T14:01:44.056Z,15.93
2018-10-03T14:06:47.189Z,18.90
2018-10-03T14:11:50.335Z,20.97
2018-10-03T14:16:53.542Z,20.83
2018-10-03T14:21:56.870Z,13.43
2018-10-03T14:27:00.037Z,14.30
2018-10-03T14:32:03.426Z,9.97
2018-10-03T14:37:06.546Z,19.73
2018-10-03T14:42:09.693Z,11.50
2018-10-03T14:47:12.879Z,18.17
2018-10-03T14:52:16.188Z,21.70
2018-10-03T14:57:19.210Z,11.57
2018-10-03T15:02:23.202Z,17.60
2018-10-03T15:07:26.327Z,12.90
2018-10-03T15:12:29.515Z,9.00
2018-10-03T15:17:32.680Z,12.73
2018-10-03T15:22:35.921Z,17.03
2018-10-03T15:27:39.414Z,16.67
2018-10-03T15:32:42.564Z,15.20
2018-10-03T15:37:45.725Z,20.00
2018-10-03T15:42:48.897Z,13.57
2018-10-03T15:47:52.025Z,13.63
2018-10-03T15:52:55.498Z,16.80
2018-10-03T15:57:58.641Z,20.57
2018-10-03T16:03:01.797Z,21.90
2018-10-03T16:08:04.969Z,16.93
2018-10-03T16:13:08.366Z,24.83
2018-10-03T16:18:11.605Z,18.27
2018-10-03T16:23:14.781Z,20.67
2018-10-03T16:28:17.901Z,15.50
2018-10-03T16:33:21.050Z,18.43
2018-10-03T16:38:24.193Z,18.05
2018-10-03T16:43:27.434Z,17.27
2018-10-03T16:48:30.625Z,17.17
2018-10-03T16:53:33.749Z,14.00
2018-10-03T16:58:36.893Z,15.90
2018-10-03T17:03:40.044Z,18.10
2018-10-03T17:08:43.210Z,14.53
2018-10-03T17:14:39.487Z,18.07
2018-10-03T17:19:42.633Z,21.23
2018-10-03T17:24:45.839Z,21.77
2018-10-03T17:29:48.937Z,23.67
2018-10-03T17:34:52.141Z,23.77
2018-10-03T17:39:55.523Z,20.27
2018-10-03T17:44:58.657Z,18.70
2018-10-03T17:50:01.774Z,17.50
2018-10-03T17:55:04.951Z,17.43
2018-10-03T18:00:08.436Z,16.67
2018-10-03T18:05:11.578Z,21.27
2018-10-03T18:10:14.822Z,24.30
2018-10-03T18:15:17.943Z,12.97
2018-10-03T18:20:21.035Z,17.57
2018-10-03T18:25:24.163Z,12.73
2018-10-03T18:30:27.362Z,22.00
2018-10-03T18:35:30.516Z,15.93
2018-10-03T18:40:33.716Z,18.40
2018-10-03T18:45:37.013Z,17.20
2018-10-03T18:50:40.295Z,17.37
2018-10-03T18:55:43.510Z,18.50
2018-10-03T19:00:46.710Z,18.87
2018-10-03T19:05:49.984Z,24.43
2018-10-03T19:10:53.035Z,20.63
2018-10-03T19:15:56.218Z,18.30
2018-10-03T19:20:59.331Z,18.20
2018-10-03T19:26:02.597Z,22.27
2018-10-03T19:31:05.926Z,25.43
2018-10-03T19:36:09.179Z,25.80
2018-10-03T19:41:13.604Z,32.13
2018-10-03T19:46:18.151Z,29.90
2018-10-03T19:51:21.605Z,33.33
2018-10-03T19:56:24.863Z,26.67
2018-10-03T20:01:28.186Z,22.80
2018-10-03T20:06:31.298Z,25.77
2018-10-03T20:11:34.866Z,21.77
2018-10-03T20:16:38.985Z,30.97
2018-10-03T20:21:42.428Z,19.77
2018-10-03T20:26:45.660Z,17.50
2018-10-03T20:31:48.716Z,20.53
2018-10-03T20:36:51.864Z,16.53
2018-10-03T20:41:55.163Z,22.77
2018-10-03T20:46:58.173Z,19.03
2018-10-03T20:52:01.352Z,15.90
2018-10-03T20:57:04.516Z,19.23
2018-10-03T21:02:07.908Z,25.60
2018-10-03T21:07:11.122Z,16.43
2018-10-03T21:12:14.224Z,19.60
2018-10-03T21:17:17.376Z,16.50
2018-10-03T21:22:20.577Z,22.50
2018-10-03T21:27:23.799Z,20.77
2018-10-03T21:32:27.018Z,27.37
2018-10-03T21:37:30.080Z,24.67
2018-10-03T21:42:33.284Z,20.33
2018-10-03T21:47:36.456Z,17.27
2018-10-03T21:52:39.628Z,22.80
2018-10-03T21:57:42.835Z,18.97
2018-10-03T22:02:46.757Z,17.20
2018-10-03T22:07:49.944Z,16.87
2018-10-03T22:12:53.079Z,16.90
2018-10-03T22:17:56.267Z,16.07
2018-10-03T22:22:59.474Z,20.47
2018-10-03T22:28:02.559Z,18.17
2018-10-03T22:33:05.944Z,16.57
2018-10-03T22:38:09.012Z,25.43
2018-10-03T22:43:12.156Z,24.07
2018-10-03T22:48:15.363Z,22.03
2018-10-03T22:53:18.519Z,19.60
2018-10-03T22:58:21.665Z,26.05
2018-10-03T23:03:24.784Z,22.17
2018-10-03T23:08:27.923Z,23.17
2018-10-03T23:13:31.039Z,15.87
2018-10-03T23:18:34.136Z,17.20
2018-10-03T23:23:37.304Z,19.53
2018-10-03T23:28:40.456Z,19.13
2018-10-03T23:33:43.609Z,22.67
2018-10-03T23:38:46.776Z,18.53
2018-10-03T23:43:49.902Z,19.12
2018-10-03T23:48:53.089Z,21.10
2018-10-03T23:53:56.237Z,14.77
2018-10-03T23:58:59.414Z,19.53
